Time;durP1;ratioP1;P1;durP2;ratioP2;P2;SDS_P1;SDS_P2;PMS_P1;PMS_P2;Temp;Humidity;BMP_temperature;BMP_pressure;BME280_temperature;BME280_humidity;BME280_pressure;Samples;Min_cycle;Max_cycle;Signal;HPM_P1;HPM_P2
2022/02/20 00:00:58;;;;;;;8.35;2.70;;;11.40;70.50;;;;;;5031290;28;20057;-85
2022/02/20 00:03:24;;;;;;;8.40;2.53;;;11.40;70.50;;;;;;5049772;28;20029;-86
2022/02/20 00:05:51;;;;;;;12.98;3.72;;;11.40;70.50;;;;;;5049477;28;20039;-86
2022/02/20 00:08:20;;;;;;;11.38;3.65;;;11.40;70.50;;;;;;5050853;28;20029;-87
2022/02/20 00:10:47;;;;;;;11.43;3.72;;;11.40;70.50;;;;;;5046360;28;20029;-84
2022/02/20 00:13:15;;;;;;;9.05;2.70;;;11.40;71.00;;;;;;5047843;28;20524;-84
2022/02/20 00:15:41;;;;;;;8.15;2.40;;;11.40;70.50;;;;;;5029576;28;20025;-82
2022/02/20 00:18:08;;;;;;;11.07;3.03;;;11.40;70.50;;;;;;5046910;28;20389;-84
2022/02/20 00:20:35;;;;;;;10.90;3.28;;;11.40;70.50;;;;;;5029703;28;20136;-85
2022/02/20 00:23:02;;;;;;;11.98;2.92;;;11.40;70.50;;;;;;5040199;28;20029;-86
2022/02/20 00:25:34;;;;;;;9.18;2.42;;;11.40;70.50;;;;;;5048306;28;20033;-84
2022/02/20 00:28:02;;;;;;;14.82;3.88;;;11.40;70.50;;;;;;5048246;28;20093;-85
2022/02/20 00:30:32;;;;;;;15.93;4.47;;;11.40;70.50;;;;;;4995186;28;20029;-85
2022/02/20 00:33:00;;;;;;;14.50;3.63;;;11.40;70.50;;;;;;5028174;28;20053;-85
2022/02/20 00:35:35;;;;;;;13.25;3.60;;;11.40;70.50;;;;;;5028225;28;20037;-85
2022/02/20 00:41:10;;;;;;;21.17;5.25;;;11.40;70.60;;;;;;5047160;28;20506;-85
2022/02/20 00:43:37;;;;;;;11.43;3.25;;;11.40;70.60;;;;;;5030225;28;20040;-86
2022/02/20 00:46:03;;;;;;;15.30;3.38;;;11.40;70.60;;;;;;5029621;28;20033;-85
2022/02/20 00:48:29;;;;;;;21.33;4.10;;;11.40;70.60;;;;;;5009798;28;20054;-85
2022/02/20 00:50:56;;;;;;;18.02;5.30;;;11.40;70.70;;;;;;5027351;28;20033;-84
2022/02/20 00:53:23;;;;;;;15.15;4.53;;;11.40;70.70;;;;;;5027463;28;20029;-85
2022/02/20 00:55:49;;;;;;;22.50;5.97;;;11.50;70.90;;;;;;5026283;28;20164;-86
2022/02/20 00:58:15;;;;;;;23.25;4.40;;;11.40;70.70;;;;;;5027581;28;20048;-85
2022/02/20 01:00:42;;;;;;;26.13;5.60;;;11.40;70.70;;;;;;5027918;28;20523;-85
2022/02/20 01:03:09;;;;;;;22.40;4.93;;;11.50;70.90;;;;;;5026078;28;20034;-86
2022/02/20 01:05:35;;;;;;;21.05;5.30;;;11.50;70.90;;;;;;5026049;28;20033;-86
2022/02/20 01:08:01;;;;;;;24.50;6.85;;;11.50;70.90;;;;;;5026519;28;20044;-86
2022/02/20 01:10:28;;;;;;;24.42;5.68;;;11.50;70.90;;;;;;5006170;28;20038;-84
2022/02/20 01:12:54;;;;;;;26.27;5.25;;;11.50;71.00;;;;;;4990429;28;20030;-86
2022/02/20 01:17:46;;;;;;;25.60;6.65;;;11.60;71.10;;;;;;5026510;28;20044;-85
2022/02/20 01:20:12;;;;;;;26.02;5.82;;;11.60;71.10;;;;;;5008884;28;20538;-85
2022/02/20 01:22:38;;;;;;;25.13;7.20;;;11.60;71.10;;;;;;5006466;28;20030;-86
2022/02/20 01:25:06;;;;;;;26.40;6.35;;;11.60;71.10;;;;;;5008106;28;20473;-86
2022/02/20 01:27:32;;;;;;;24.10;6.75;;;11.60;71.10;;;;;;5006428;28;20113;-85
2022/02/20 01:29:59;;;;;;;23.92;5.70;;;11.60;71.10;;;;;;5022629;28;20473;-84
2022/02/20 01:32:25;;;;;;;26.88;7.30;;;11.70;71.30;;;;;;5028082;28;20092;-86
2022/02/20 01:34:51;;;;;;;30.90;8.02;;;11.70;71.30;;;;;;4994199;28;20096;-84
2022/02/20 01:37:18;;;;;;;29.52;6.60;;;11.70;71.30;;;;;;5026299;28;20037;-84
2022/02/20 01:39:44;;;;;;;27.30;7.25;;;11.60;71.10;;;;;;5025741;28;20038;-85
2022/02/20 01:42:17;;;;;;;39.97;8.20;;;11.70;71.90;;;;;;5025710;28;20052;-83
2022/02/20 01:44:44;;;;;;;38.97;8.25;;;11.60;71.20;;;;;;5025501;28;20132;-84
2022/02/20 01:47:14;;;;;;;30.45;8.60;;;11.70;71.40;;;;;;5024872;28;20765;-84
2022/02/20 01:49:42;;;;;;;29.85;7.88;;;11.70;71.40;;;;;;5025670;28;20029;-84
2022/02/20 01:52:08;;;;;;;36.03;7.63;;;11.60;71.30;;;;;;5025371;28;20128;-85
2022/02/20 01:54:36;;;;;;;32.50;11.02;;;11.70;71.50;;;;;;5019691;28;20420;-86
2022/02/20 01:57:03;;;;;;;33.03;8.07;;;11.70;71.50;;;;;;5026071;28;20401;-86
2022/02/20 01:59:48;;;;;;;35.28;9.35;;;11.70;71.50;;;;;;5010979;28;20275;-85
2022/02/20 02:02:32;;;;;;;34.28;8.75;;;11.70;71.50;;;;;;5006775;28;20233;-84
2022/02/20 02:05:07;;;;;;;33.30;7.22;;;11.70;71.50;;;;;;5006915;28;20037;-84
2022/02/20 02:07:40;;;;;;;29.73;8.40;;;11.70;71.50;;;;;;5009150;28;20513;-84
2022/02/20 02:10:25;;;;;;;34.20;9.63;;;11.70;71.50;;;;;;5012163;28;20033;-84
2022/02/20 02:13:12;;;;;;;39.25;11.20;;;11.70;71.50;;;;;;5012686;28;20231;-84
2022/02/20 02:16:16;;;;;;;36.88;7.53;;;11.70;71.50;;;;;;5012047;28;20052;-85
2022/02/20 02:19:03;;;;;;;39.90;9.90;;;11.70;71.40;;;;;;5018821;28;20638;-85
2022/02/20 02:21:47;;;;;;;37.15;9.30;;;11.70;71.40;;;;;;5031071;28;20084;-87
2022/02/20 02:24:34;;;;;;;34.63;8.85;;;11.70;71.40;;;;;;5030672;28;20095;-86
2022/02/20 02:27:15;;;;;;;41.08;9.80;;;11.70;71.40;;;;;;5029509;28;20068;-86
2022/02/20 02:30:05;;;;;;;41.53;8.70;;;11.80;71.60;;;;;;5022611;28;20103;-86
2022/02/20 02:32:31;;;;;;;32.22;6.63;;;11.80;71.60;;;;;;5028978;28;20061;-87
2022/02/20 02:34:57;;;;;;;35.25;7.85;;;11.80;71.60;;;;;;5030378;28;20488;-86
2022/02/20 02:37:26;;;;;;;26.80;7.80;;;11.80;71.50;;;;;;5029076;28;20037;-86
2022/02/20 02:39:52;;;;;;;35.28;7.60;;;11.80;71.60;;;;;;5028978;28;20071;-87
2022/02/20 02:42:19;;;;;;;28.77;6.22;;;11.80;71.60;;;;;;5029935;28;20439;-85
2022/02/20 02:44:47;;;;;;;34.17;8.48;;;11.80;71.60;;;;;;5029168;28;20030;-86
2022/02/20 02:47:13;;;;;;;34.55;9.63;;;11.70;71.40;;;;;;5013696;28;20366;-86
2022/02/20 02:49:40;;;;;;;37.25;8.95;;;11.80;71.60;;;;;;5032168;28;20087;-87
2022/02/20 02:52:06;;;;;;;30.50;7.40;;;11.80;71.60;;;;;;5032797;28;20060;-85
2022/02/20 02:54:33;;;;;;;29.80;6.80;;;11.80;71.60;;;;;;5015347;28;20104;-86
2022/02/20 02:56:59;;;;;;;31.77;7.90;;;11.80;71.60;;;;;;5031716;28;20033;-85
2022/02/20 02:59:26;;;;;;;33.75;9.05;;;11.80;71.60;;;;;;5015015;28;20037;-85
2022/02/20 03:01:56;;;;;;;37.10;8.45;;;11.80;71.60;;;;;;5031419;28;20496;-86
2022/02/20 03:04:23;;;;;;;29.13;6.43;;;11.80;71.60;;;;;;5032890;28;20504;-84
2022/02/20 03:06:49;;;;;;;34.17;7.85;;;11.80;71.60;;;;;;5033178;28;20148;-85
2022/02/20 03:09:16;;;;;;;27.98;6.57;;;11.80;71.60;;;;;;5031547;28;20049;-85
2022/02/20 03:11:42;;;;;;;32.40;9.82;;;11.80;71.60;;;;;;5031221;28;20155;-83
2022/02/20 03:14:14;;;;;;;33.25;7.05;;;11.80;71.50;;;;;;5015514;28;20025;-84
2022/02/20 03:16:41;;;;;;;34.65;9.20;;;11.80;71.50;;;;;;5014240;28;20093;-85
2022/02/20 03:19:08;;;;;;;30.90;7.88;;;11.80;71.50;;;;;;5031298;28;20397;-86
2022/02/20 03:21:36;;;;;;;32.30;8.48;;;11.90;71.60;;;;;;5031582;28;20082;-85
2022/02/20 03:24:04;;;;;;;31.05;7.82;;;11.90;71.60;;;;;;5031307;28;20037;-85
2022/02/20 03:26:31;;;;;;;35.03;7.53;;;11.90;71.50;;;;;;5031003;28;20116;-82
2022/02/20 03:29:00;;;;;;;35.40;7.70;;;11.90;71.50;;;;;;5030689;28;20476;-83
2022/02/20 03:31:29;;;;;;;29.67;8.98;;;11.90;71.50;;;;;;5030808;28;20044;-82
2022/02/20 03:33:55;;;;;;;30.83;8.38;;;11.90;71.50;;;;;;5031001;28;20392;-85
2022/02/20 03:36:22;;;;;;;32.60;9.00;;;11.90;71.50;;;;;;5031226;28;20033;-84
2022/02/20 03:38:49;;;;;;;36.08;8.43;;;11.90;71.50;;;;;;5030477;28;20025;-82
2022/02/20 03:41:22;;;;;;;40.80;12.82;;;11.90;71.50;;;;;;5030653;28;20041;-83
2022/02/20 03:43:48;;;;;;;28.63;7.53;;;11.90;71.60;;;;;;5030386;28;20037;-85
2022/02/20 03:46:15;;;;;;;33.25;9.52;;;11.90;71.50;;;;;;5031925;28;20174;-85
2022/02/20 03:48:52;;;;;;;38.15;9.38;;;11.90;71.50;;;;;;5015410;28;20550;-84
2022/02/20 03:51:31;;;;;;;28.40;6.45;;;11.90;71.50;;;;;;5030344;28;20041;-82
2022/02/20 03:53:58;;;;;;;36.15;7.93;;;11.90;71.50;;;;;;5029935;28;20037;-84
2022/02/20 03:56:24;;;;;;;34.05;7.93;;;11.80;71.30;;;;;;5031511;28;20099;-83
2022/02/20 03:58:53;;;;;;;35.20;8.38;;;11.90;71.50;;;;;;5030427;28;20061;-83
2022/02/20 04:01:24;;;;;;;32.67;8.80;;;11.80;71.40;;;;;;5030473;28;20033;-85
2022/02/20 04:03:51;;;;;;;32.95;7.50;;;11.90;71.50;;;;;;5030412;28;20520;-85
2022/02/20 04:06:17;;;;;;;24.88;6.82;;;11.90;71.50;;;;;;5030117;28;20049;-85
2022/02/20 04:08:49;;;;;;;31.65;7.70;;;11.90;71.50;;;;;;5030436;28;20029;-86
2022/02/20 04:11:16;;;;;;;37.00;9.75;;;11.90;71.60;;;;;;5030222;28;20068;-86
2022/02/20 04:14:05;;;;;;;32.45;8.02;;;11.90;71.50;;;;;;5023212;28;20038;-86
2022/02/20 04:16:44;;;;;;;32.28;6.13;;;11.90;71.50;;;;;;5030586;28;20033;-86
2022/02/20 04:19:10;;;;;;;31.98;7.40;;;11.90;71.50;;;;;;5030150;28;20128;-85
2022/02/20 04:21:36;;;;;;;31.00;7.80;;;11.90;71.40;;;;;;5013911;28;20033;-85
2022/02/20 04:24:18;;;;;;;22.75;7.93;;;11.90;71.40;;;;;;5015698;28;20057;-87
2022/02/20 04:26:45;;;;;;;33.88;8.23;;;11.90;71.40;;;;;;5030202;28;20472;-85
2022/02/20 04:29:20;;;;;;;32.08;8.20;;;11.90;71.40;;;;;;5029053;28;20480;-84
2022/02/20 04:31:47;;;;;;;31.38;8.27;;;11.90;71.30;;;;;;5030031;28;20029;-85
2022/02/20 04:34:13;;;;;;;32.90;6.78;;;11.90;71.50;;;;;;5029843;28;20030;-83
2022/02/20 04:36:39;;;;;;;27.90;6.72;;;11.90;71.30;;;;;;5029786;28;20060;-83
2022/02/20 04:39:09;;;;;;;33.95;7.30;;;11.90;71.20;;;;;;5029481;28;20146;-82
2022/02/20 04:41:38;;;;;;;28.80;9.15;;;12.00;71.40;;;;;;5014009;28;20026;-83
2022/02/20 04:44:10;;;;;;;35.17;7.80;;;11.90;71.20;;;;;;5030407;28;20465;-85
2022/02/20 04:46:37;;;;;;;30.67;8.00;;;11.90;71.20;;;;;;5030726;28;20033;-84
2022/02/20 04:49:05;;;;;;;28.88;8.30;;;11.90;71.20;;;;;;5030019;28;20046;-83
2022/02/20 04:51:50;;;;;;;35.13;8.73;;;11.90;71.20;;;;;;5030151;28;20033;-84
2022/02/20 04:54:36;;;;;;;27.17;9.50;;;11.90;71.20;;;;;;5030938;28;20021;-83
2022/02/20 04:57:03;;;;;;;27.88;7.47;;;11.90;71.20;;;;;;5013222;28;20068;-84
2022/02/20 04:59:29;;;;;;;25.55;6.18;;;11.90;71.20;;;;;;5029408;28;20068;-83
2022/02/20 05:01:56;;;;;;;27.27;6.70;;;11.90;71.20;;;;;;5029134;28;20033;-83
2022/02/20 05:04:28;;;;;;;30.25;7.70;;;11.90;71.20;;;;;;5029520;28;20036;-83
2022/02/20 05:06:56;;;;;;;29.35;7.93;;;11.90;71.20;;;;;;5029115;28;20029;-83
2022/02/20 05:09:31;;;;;;;28.38;7.28;;;11.90;71.20;;;;;;5029415;28;20521;-83
2022/02/20 05:12:00;;;;;;;24.20;6.65;;;11.90;71.20;;;;;;5029107;28;20551;-83
2022/02/20 05:14:27;;;;;;;30.23;8.45;;;11.90;71.20;;;;;;5029408;28;20104;-83
2022/02/20 05:16:57;;;;;;;30.42;9.15;;;11.90;71.20;;;;;;5029330;28;20025;-83
2022/02/20 05:19:43;;;;;;;30.30;7.72;;;12.00;71.30;;;;;;5029172;28;20048;-84
2022/02/20 05:22:09;;;;;;;36.88;9.00;;;11.90;71.10;;;;;;5031441;28;20025;-83
2022/02/20 05:24:44;;;;;;;31.02;6.43;;;12.00;71.30;;;;;;5031370;28;20134;-83
2022/02/20 05:27:11;;;;;;;25.17;8.63;;;12.00;71.20;;;;;;5031512;28;20029;-84
2022/02/20 05:29:40;;;;;;;36.67;8.63;;;11.90;71.10;;;;;;5030854;28;20033;-83
2022/02/20 05:32:08;;;;;;;38.10;9.07;;;12.00;71.20;;;;;;5013898;28;20030;-84
2022/02/20 05:34:55;;;;;;;32.75;8.07;;;12.00;71.20;;;;;;5029532;28;20033;-83
2022/02/20 05:37:23;;;;;;;28.48;6.05;;;12.00;71.20;;;;;;5029728;28;20128;-82
2022/02/20 05:39:56;;;;;;;28.83;6.47;;;12.00;71.20;;;;;;5033194;28;20041;-83
2022/02/20 05:42:23;;;;;;;23.55;6.22;;;12.00;71.20;;;;;;5033644;28;20091;-83
2022/02/20 05:45:10;;;;;;;31.17;7.63;;;12.00;71.20;;;;;;5034224;28;20029;-81
2022/02/20 05:47:37;;;;;;;31.30;8.30;;;12.00;71.10;;;;;;5026231;28;20041;-84
2022/02/20 05:50:09;;;;;;;30.77;7.15;;;12.00;71.20;;;;;;5012551;28;20030;-83
2022/02/20 05:52:36;;;;;;;23.80;5.60;;;12.00;71.20;;;;;;5013546;28;20497;-87
2022/02/20 05:55:06;;;;;;;24.42;7.68;;;12.00;71.20;;;;;;4997418;28;20316;-86
2022/02/20 05:57:48;;;;;;;39.28;8.15;;;12.00;71.20;;;;;;5028624;28;20095;-84
2022/02/20 06:00:21;;;;;;;23.95;5.38;;;12.00;71.20;;;;;;5009609;28;20030;-83
2022/02/20 06:02:57;;;;;;;25.42;6.80;;;12.00;71.20;;;;;;5010528;28;20041;-83
2022/02/20 06:05:40;;;;;;;29.17;6.50;;;12.00;71.20;;;;;;5009155;28;20029;-82
2022/02/20 06:08:25;;;;;;;25.52;6.28;;;12.00;71.10;;;;;;5010653;28;20033;-82
2022/02/20 06:13:32;;;;;;;34.20;7.18;;;12.00;71.10;;;;;;5024078;28;20381;-84
2022/02/20 06:16:09;;;;;;;30.58;6.55;;;12.10;71.20;;;;;;5028636;28;20025;-81
2022/02/20 06:18:54;;;;;;;24.58;7.57;;;12.00;71.10;;;;;;5017999;28;20033;-81
2022/02/20 06:21:33;;;;;;;31.20;7.05;;;12.00;71.00;;;;;;5010515;28;20034;-84
2022/02/20 06:24:15;;;;;;;;;;;12.10;71.20;;;;;;5009445;28;20519;-84
2022/02/20 06:27:05;;;;;;;26.25;5.63;;;12.10;71.10;;;;;;5001617;28;19913;-84
2022/02/20 06:29:32;;;;;;;26.13;8.02;;;12.10;71.00;;;;;;5008711;28;20030;-84
2022/02/20 06:31:59;;;;;;;31.50;9.05;;;12.10;71.00;;;;;;4993060;28;20101;-81
2022/02/20 06:34:29;;;;;;;29.05;8.10;;;12.10;71.10;;;;;;5008764;28;20022;-81
2022/02/20 06:36:59;;;;;;;25.92;6.40;;;12.10;71.10;;;;;;5010083;28;20034;-79
2022/02/20 06:39:25;;;;;;;27.35;7.13;;;12.10;71.10;;;;;;4991966;28;20042;-81
2022/02/20 06:41:52;;;;;;;40.60;8.90;;;12.10;71.10;;;;;;5008652;28;20038;-77
2022/02/20 06:44:18;;;;;;;29.10;7.32;;;12.10;71.10;;;;;;5008452;28;20366;-79
2022/02/20 06:46:57;;;;;;;38.20;8.30;;;12.10;71.10;;;;;;5019715;28;20314;-77
2022/02/20 06:49:54;;;;;;;27.02;6.55;;;12.10;71.10;;;;;;5003863;28;20052;-79
2022/02/20 06:52:41;;;;;;;31.30;7.07;;;12.20;71.30;;;;;;5033410;28;20041;-78
2022/02/20 06:55:31;;;;;;;30.95;9.13;;;12.10;71.10;;;;;;5019991;28;20238;-78
2022/02/20 06:58:05;;;;;;;25.15;7.60;;;12.20;71.30;;;;;;5027228;28;20030;-78
2022/02/20 07:00:32;;;;;;;28.05;6.97;;;12.20;71.40;;;;;;5011590;28;20048;-79
2022/02/20 07:02:59;;;;;;;27.98;7.57;;;12.20;71.40;;;;;;5035363;28;20041;-78
2022/02/20 07:05:25;;;;;;;25.65;7.88;;;12.20;71.40;;;;;;5035547;28;20033;-79
2022/02/20 07:07:51;;;;;;;25.88;7.22;;;12.20;71.40;;;;;;5019239;28;20087;-77
2022/02/20 07:10:17;;;;;;;28.65;7.97;;;12.20;71.40;;;;;;5053715;28;20029;-78
2022/02/20 07:12:43;;;;;;;23.00;7.45;;;12.20;71.40;;;;;;5052636;28;20520;-79
2022/02/20 07:15:10;;;;;;;29.08;8.55;;;12.20;71.40;;;;;;5055668;28;20096;-79
2022/02/20 07:17:36;;;;;;;29.20;8.05;;;12.20;71.30;;;;;;5054925;28;20120;-78
2022/02/20 07:20:04;;;;;;;29.13;8.15;;;12.30;71.40;;;;;;5039619;28;20110;-81
2022/02/20 07:22:31;;;;;;;36.85;7.70;;;12.30;71.40;;;;;;5036985;28;20026;-80
2022/02/20 07:24:58;;;;;;;29.00;7.75;;;12.30;71.40;;;;;;5039023;28;20026;-80
2022/02/20 07:27:24;;;;;;;34.40;8.90;;;12.30;71.40;;;;;;5043057;28;20491;-80
2022/02/20 07:29:51;;;;;;;29.95;7.72;;;12.30;71.40;;;;;;5044792;28;20421;-85
2022/02/20 07:32:17;;;;;;;24.00;6.82;;;12.30;71.40;;;;;;5048004;28;20017;-86
2022/02/20 07:34:44;;;;;;;35.97;9.52;;;12.30;71.30;;;;;;5047214;28;20036;-84
2022/02/20 07:37:10;;;;;;;28.45;7.68;;;12.30;71.30;;;;;;5047698;28;20106;-86
2022/02/20 07:39:36;;;;;;;32.95;8.85;;;12.30;71.40;;;;;;5031807;28;20049;-81
2022/02/20 07:42:03;;;;;;;29.42;8.70;;;12.40;71.60;;;;;;5027740;28;20120;-81
2022/02/20 07:44:34;;;;;;;31.33;7.63;;;12.30;71.40;;;;;;5010391;28;20048;-80
2022/02/20 07:47:01;;;;;;;33.00;8.75;;;12.30;71.40;;;;;;5028655;28;20036;-87
2022/02/20 07:49:27;;;;;;;36.83;9.57;;;12.30;71.50;;;;;;5026761;28;20052;-86
2022/02/20 07:51:53;;;;;;;32.75;9.80;;;12.30;71.50;;;;;;5013771;28;20037;-87
2022/02/20 07:54:20;;;;;;;35.40;8.68;;;12.30;71.50;;;;;;5031382;28;20029;-88
2022/02/20 07:56:46;;;;;;;32.78;8.43;;;12.30;71.50;;;;;;5048621;28;20036;-85
2022/02/20 07:59:12;;;;;;;27.80;7.53;;;12.30;71.60;;;;;;5031047;28;20025;-89
2022/02/20 08:01:38;;;;;;;36.65;9.07;;;12.30;71.60;;;;;;5031122;28;20035;-82
2022/02/20 08:04:05;;;;;;;31.27;8.18;;;12.30;71.60;;;;;;5047035;28;20032;-81
2022/02/20 08:06:32;;;;;;;27.08;6.63;;;12.30;71.60;;;;;;5047737;28;20060;-84
2022/02/20 08:09:01;;;;;;;25.20;7.25;;;12.30;71.60;;;;;;5046977;28;20057;-83
2022/02/20 08:11:27;;;;;;;26.88;7.07;;;12.40;71.80;;;;;;5030259;28;20393;-83
2022/02/20 08:13:53;;;;;;;28.83;7.10;;;12.30;71.60;;;;;;5047345;28;20044;-83
2022/02/20 08:16:20;;;;;;;27.50;6.82;;;12.40;71.80;;;;;;5013300;28;20503;-84
2022/02/20 08:18:47;;;;;;;33.60;8.15;;;12.30;71.60;;;;;;5029583;28;20033;-84
2022/02/20 08:21:14;;;;;;;30.15;9.73;;;12.40;71.80;;;;;;5029801;28;20045;-85
2022/02/20 08:23:41;;;;;;;29.67;6.93;;;12.40;71.80;;;;;;5029214;28;20037;-85
2022/02/20 08:26:07;;;;;;;29.85;7.30;;;12.40;71.90;;;;;;5013285;28;20090;-84
2022/02/20 08:28:34;;;;;;;35.00;8.13;;;12.40;71.90;;;;;;5012491;28;20025;-86
2022/02/20 08:31:00;;;;;;;27.50;6.72;;;12.40;71.90;;;;;;5029543;28;20074;-84
2022/02/20 08:33:27;;;;;;;24.15;7.57;;;12.30;71.70;;;;;;5047494;28;20025;-85
2022/02/20 08:35:53;;;;;;;25.45;7.10;;;12.40;71.90;;;;;;5047122;28;20049;-85
2022/02/20 08:38:22;;;;;;;24.67;7.72;;;12.40;72.00;;;;;;5050008;28;20067;-85
2022/02/20 08:40:52;;;;;;;26.45;6.40;;;12.40;72.00;;;;;;5031629;28;20124;-83
2022/02/20 08:43:20;;;;;;;30.27;8.73;;;12.40;72.50;;;;;;5030559;28;20384;-83
2022/02/20 08:45:48;;;;;;;24.85;6.97;;;12.40;72.00;;;;;;5030228;28;20127;-83
2022/02/20 08:48:16;;;;;;;26.50;6.90;;;12.40;72.00;;;;;;5026220;28;20045;-82
2022/02/20 08:50:43;;;;;;;27.92;7.95;;;12.40;72.00;;;;;;5020624;28;20060;-79
2022/02/20 08:53:11;;;;;;;24.02;8.15;;;12.40;72.00;;;;;;5017637;28;20021;-81
2022/02/20 08:55:38;;;;;;;23.20;5.80;;;12.40;72.00;;;;;;5021459;28;20113;-81
2022/02/20 08:58:05;;;;;;;28.33;7.57;;;12.40;71.90;;;;;;5011966;28;20029;-82
2022/02/20 09:00:31;;;;;;;24.40;7.75;;;12.50;72.10;;;;;;5016195;28;20441;-82
2022/02/20 09:02:58;;;;;;;21.38;5.63;;;12.50;72.10;;;;;;5018965;28;20033;-81
2022/02/20 09:05:24;;;;;;;22.40;6.88;;;12.50;72.10;;;;;;5022647;28;20053;-81
2022/02/20 09:07:50;;;;;;;22.25;7.47;;;12.50;72.10;;;;;;5027094;28;20502;-81
2022/02/20 09:10:18;;;;;;;23.60;6.22;;;12.50;72.10;;;;;;5025505;28;20568;-81
2022/02/20 09:12:45;;;;;;;22.73;7.18;;;12.50;72.10;;;;;;5008738;28;20044;-82
2022/02/20 09:15:12;;;;;;;22.35;5.90;;;12.50;72.10;;;;;;5029208;28;20440;-82
2022/02/20 09:17:40;;;;;;;17.13;6.70;;;12.60;72.30;;;;;;5029664;28;20030;-82
2022/02/20 09:20:10;;;;;;;16.35;4.95;;;12.50;72.10;;;;;;5011488;28;20124;-82
2022/02/20 09:23:14;;;;;;;26.55;7.00;;;12.60;72.20;;;;;;5009364;28;20033;-82
2022/02/20 09:25:41;;;;;;;;;;;12.60;72.30;;;;;;5011737;28;20029;-82
2022/02/20 09:28:08;;;;;;;19.27;4.63;;;12.60;72.20;;;;;;5011402;28;20440;-83
2022/02/20 09:30:34;;;;;;;22.35;6.38;;;12.60;72.10;;;;;;5014975;28;20037;-83
2022/02/20 09:33:01;;;;;;;23.80;5.55;;;12.70;72.30;;;;;;5006461;28;20033;-81
2022/02/20 09:35:27;;;;;;;23.55;6.25;;;12.70;72.30;;;;;;5022927;28;20110;-82
2022/02/20 09:37:53;;;;;;;19.05;4.85;;;12.70;72.30;;;;;;5027816;28;20034;-82
2022/02/20 09:40:20;;;;;;;18.60;5.95;;;12.70;72.30;;;;;;5011228;28;20203;-81
2022/02/20 09:45:12;;;;;;;16.65;5.40;;;12.80;72.50;;;;;;5028715;28;20033;-80
2022/02/20 09:47:40;;;;;;;17.67;5.15;;;12.80;72.50;;;;;;5037516;28;20109;-80
2022/02/20 09:52:32;;;;;;;16.52;5.13;;;12.80;72.50;;;;;;5049421;28;20553;-82
2022/02/20 09:58:03;;;;;;;16.05;5.05;;;12.80;72.60;;;;;;5048766;28;20036;-81
2022/02/20 10:00:35;;;;;;;13.90;5.07;;;12.70;72.40;;;;;;5050046;28;20052;-78
2022/02/20 10:03:03;;;;;;;20.50;5.95;;;12.70;72.50;;;;;;5033010;28;20408;-80
2022/02/20 10:05:30;;;;;;;18.17;4.63;;;12.80;72.70;;;;;;5032155;28;20033;-82
2022/02/20 10:07:57;;;;;;;17.45;4.72;;;12.80;72.70;;;;;;5050439;28;20033;-81
2022/02/20 10:10:27;;;;;;;15.05;4.60;;;12.70;72.60;;;;;;5049798;28;20033;-82
2022/02/20 10:13:01;;;;;;;14.60;4.88;;;12.70;72.60;;;;;;5032761;28;20060;-79
2022/02/20 10:15:32;;;;;;;13.75;4.85;;;12.70;72.60;;;;;;5032496;28;20043;-77
2022/02/20 10:18:23;;;;;;;15.43;5.53;;;12.80;72.80;;;;;;5049780;28;20483;-79
2022/02/20 10:21:10;;;;;;;15.50;4.88;;;12.80;72.80;;;;;;5048288;28;20040;-77
2022/02/20 10:24:03;;;;;;;14.27;4.32;;;12.80;72.80;;;;;;5049650;28;20440;-78
2022/02/20 10:29:21;;;;;;;18.95;4.80;;;12.80;72.70;;;;;;5040026;28;20037;-77
2022/02/20 10:31:51;;;;;;;16.20;5.32;;;12.90;72.90;;;;;;5048547;28;20040;-78
2022/02/20 10:34:19;;;;;;;14.70;4.32;;;12.90;72.80;;;;;;5043580;28;20480;-78
2022/02/20 10:36:56;;;;;;;17.10;4.47;;;12.90;72.80;;;;;;5015379;28;20057;-78
2022/02/20 10:39:31;;;;;;;16.42;5.97;;;13.00;73.00;;;;;;5034323;28;20651;-78
2022/02/20 10:42:14;;;;;;;13.75;4.10;;;13.00;73.00;;;;;;5012115;28;20122;-77
2022/02/20 10:47:31;;;;;;;15.80;4.70;;;13.10;73.00;;;;;;5027772;28;20494;-77
2022/02/20 10:57:32;;;;;;;17.17;4.45;;;13.20;73.10;;;;;;5024828;28;20036;-78
2022/02/20 10:59:59;;;;;;;12.52;4.32;;;13.30;73.30;;;;;;5046382;28;20041;-77
2022/02/20 11:02:25;;;;;;;19.77;5.65;;;13.30;73.30;;;;;;5049091;28;20040;-77
2022/02/20 11:04:52;;;;;;;22.50;6.03;;;13.20;73.10;;;;;;5031530;28;20096;-77
2022/02/20 11:07:19;;;;;;;19.00;5.07;;;13.30;73.20;;;;;;5035816;28;20029;-77
2022/02/20 11:09:45;;;;;;;15.27;4.85;;;13.30;73.30;;;;;;5046209;28;20083;-77
2022/02/20 11:12:15;;;;;;;17.55;6.45;;;13.30;73.20;;;;;;5048810;28;20032;-78
2022/02/20 11:14:44;;;;;;;16.85;5.82;;;13.30;73.20;;;;;;5031009;28;20029;-77
2022/02/20 11:17:12;;;;;;;20.13;5.97;;;13.30;73.20;;;;;;5048789;28;20128;-77
2022/02/20 11:19:41;;;;;;;22.55;5.10;;;13.30;73.30;;;;;;5031942;28;20041;-77
2022/02/20 11:22:08;;;;;;;17.70;5.03;;;13.30;73.30;;;;;;5028980;28;20431;-77
2022/02/20 11:24:37;;;;;;;16.52;5.53;;;13.40;73.50;;;;;;5029402;28;20029;-76
2022/02/20 11:27:05;;;;;;;24.25;5.50;;;13.30;73.30;;;;;;5029097;28;20519;-76
2022/02/20 11:29:32;;;;;;;17.77;5.88;;;13.30;73.30;;;;;;5010797;28;20030;-77
2022/02/20 11:31:59;;;;;;;20.85;5.95;;;13.30;73.30;;;;;;5016274;28;20029;-77
2022/02/20 11:36:58;;;;;;;18.35;4.75;;;13.40;73.60;;;;;;5044674;28;20481;-79
2022/02/20 11:42:15;;;;;;;20.02;5.70;;;13.50;73.50;;;;;;5047209;28;20033;-80
2022/02/20 11:44:49;;;;;;;19.20;5.43;;;13.60;73.60;;;;;;5048053;28;20472;-80
2022/02/20 11:47:34;;;;;;;17.17;4.43;;;13.60;73.40;;;;;;5029462;28;20467;-79
2022/02/20 11:50:16;;;;;;;17.30;5.28;;;13.70;74.00;;;;;;5029623;28;20080;-78
2022/02/20 11:52:53;;;;;;;16.75;4.82;;;13.80;74.60;;;;;;5047949;28;20032;-78
2022/02/20 11:57:47;;;;;;;13.82;3.78;;;14.10;74.80;;;;;;5046433;28;20025;-77
2022/02/20 12:00:23;;;;;;;16.27;5.03;;;14.20;74.90;;;;;;5046295;28;20381;-77
2022/02/20 12:05:36;;;;;;;17.35;5.32;;;14.50;74.70;;;;;;5047473;28;20033;-78
2022/02/20 12:11:44;;;;;;;19.65;4.25;;;14.70;74.80;;;;;;5049100;28;20037;-79
2022/02/20 12:14:16;;;;;;;12.93;3.40;;;14.60;74.50;;;;;;5030926;28;20032;-79
2022/02/20 12:16:55;;;;;;;13.63;3.55;;;14.60;74.50;;;;;;5013957;28;20132;-78
2022/02/20 12:19:33;;;;;;;13.15;3.47;;;14.60;74.60;;;;;;5029899;28;20025;-79
2022/02/20 12:22:06;;;;;;;10.70;3.55;;;14.60;74.70;;;;;;5030536;28;20033;-77
2022/02/20 12:24:51;;;;;;;23.77;4.68;;;14.60;74.80;;;;;;5048012;28;20384;-77
2022/02/20 12:27:21;;;;;;;12.15;3.30;;;14.60;74.90;;;;;;5030198;28;20029;-77
2022/02/20 12:29:51;;;;;;;11.93;3.47;;;14.60;74.80;;;;;;5030089;28;20318;-80
2022/02/20 12:32:26;;;;;;;12.52;3.78;;;14.60;74.80;;;;;;5013131;28;20044;-79
2022/02/20 12:37:50;;;;;;;12.27;3.38;;;14.60;74.80;;;;;;5026625;28;20092;-80
2022/02/20 12:40:31;;;;;;;11.40;3.20;;;14.50;74.60;;;;;;5027183;28;20080;-79
2022/02/20 12:43:07;;;;;;;16.20;3.28;;;14.50;74.80;;;;;;5027900;28;20041;-79
2022/02/20 12:45:37;;;;;;;11.95;3.42;;;14.40;74.60;;;;;;5027199;28;20060;-79
2022/02/20 12:48:06;;;;;;;14.02;4.38;;;14.30;74.60;;;;;;5013352;28;20106;-79
2022/02/20 12:50:35;;;;;;;15.68;4.85;;;14.30;74.80;;;;;;5028915;28;20032;-79
2022/02/20 12:53:03;;;;;;;14.18;4.88;;;14.30;75.20;;;;;;5029603;28;20029;-79
2022/02/20 12:55:30;;;;;;;13.85;4.07;;;14.30;75.60;;;;;;5047041;28;20392;-81
2022/02/20 12:58:00;;;;;;;15.73;4.93;;;14.20;75.50;;;;;;5049474;28;20041;-90
2022/02/20 13:00:41;;;;;;;13.48;4.32;;;14.30;75.80;;;;;;5047999;28;20087;-88
2022/02/20 13:03:16;;;;;;;13.05;3.75;;;14.20;75.80;;;;;;5048529;28;20494;-88
2022/02/20 13:05:48;;;;;;;10.90;4.03;;;14.20;75.80;;;;;;5029247;28;20040;-78
2022/02/20 13:08:16;;;;;;;10.93;3.30;;;14.30;75.90;;;;;;5047205;28;20438;-86
2022/02/20 13:10:45;;;;;;;13.77;5.55;;;14.30;75.90;;;;;;5028943;28;20044;-80
2022/02/20 13:13:30;;;;;;;11.82;3.92;;;14.30;76.40;;;;;;5046677;28;20171;-79
2022/02/20 13:16:02;;;;;;;12.88;3.67;;;14.30;75.90;;;;;;5031283;28;20037;-77
2022/02/20 13:18:32;;;;;;;13.35;4.65;;;14.30;75.90;;;;;;5050730;28;20040;-77
2022/02/20 13:21:10;;;;;;;13.23;3.58;;;14.30;75.90;;;;;;5051270;28;20445;-83
2022/02/20 13:23:40;;;;;;;9.07;3.13;;;14.30;76.00;;;;;;5055356;28;20048;-81
2022/02/20 13:26:22;;;;;;;9.88;3.63;;;14.40;76.10;;;;;;5049114;28;20466;-82
2022/02/20 13:28:53;;;;;;;6.07;2.35;;;14.40;76.00;;;;;;5021644;28;20061;-81
2022/02/20 13:31:22;;;;;;;10.52;3.80;;;14.40;75.90;;;;;;5028820;28;20112;-82
2022/02/20 13:33:58;;;;;;;11.73;3.60;;;14.40;75.90;;;;;;5029919;28;20116;-81
2022/02/20 13:36:28;;;;;;;10.18;3.28;;;14.40;75.90;;;;;;5011058;28;20041;-81
2022/02/20 13:39:10;;;;;;;10.73;4.00;;;14.40;75.90;;;;;;5009685;28;20021;-78
2022/02/20 13:41:39;;;;;;;11.02;3.90;;;14.30;75.70;;;;;;5028171;28;20037;-78